createdAt,value
2019-02-02T00:01:35.603Z,101182.40
2019-02-02T00:04:09.825Z,101179.32
2019-02-02T00:06:51.355Z,101181.42
2019-02-02T00:09:23.715Z,101181.61
2019-02-02T00:11:56.862Z,101182.32
2019-02-02T00:14:29.055Z,101187.34
2019-02-02T00:17:07.657Z,101178.23
2019-02-02T00:19:52.589Z,101177.53
2019-02-02T00:22:31.578Z,101183.79
2019-02-02T00:25:06.573Z,101183.79
2019-02-02T00:27:41.744Z,101192.05
2019-02-02T00:30:19.810Z,101190.95
2019-02-02T00:32:49.439Z,101191.02
2019-02-02T00:35:29.568Z,101186.55
2019-02-02T00:38:07.960Z,101191.40
2019-02-02T00:40:45.848Z,101192.51
2019-02-02T00:43:17.664Z,101194.02
2019-02-02T00:45:53.045Z,101190.42
2019-02-02T00:48:28.479Z,101199.65
2019-02-02T00:50:59.669Z,101195.95
2019-02-02T00:53:39.722Z,101199.59
2019-02-02T00:56:15.007Z,101202.61
2019-02-02T00:58:46.370Z,101204.17
2019-02-02T01:01:18.014Z,101199.27
2019-02-02T01:03:57.826Z,101204.17
2019-02-02T01:06:33.675Z,101203.08
2019-02-02T01:09:17.857Z,101199.09
2019-02-02T01:11:47.694Z,101204.17
2019-02-02T01:14:23.214Z,101202.92
2019-02-02T01:16:54.756Z,101206.47
2019-02-02T01:19:33.227Z,101193.98
2019-02-02T01:22:02.958Z,101195.97
2019-02-02T01:24:38.848Z,101201.29
2019-02-02T01:27:10.781Z,101193.52
2019-02-02T01:29:43.515Z,101194.09
2019-02-02T01:32:20.920Z,101190.45
2019-02-02T01:34:57.599Z,101189.36
2019-02-02T01:37:32.010Z,101179.24
2019-02-02T01:40:02.620Z,101179.14
2019-02-02T01:42:43.963Z,101171.20
2019-02-02T01:45:18.279Z,101168.28
2019-02-02T01:47:52.253Z,101165.81
2019-02-02T01:50:32.215Z,101172.25
2019-02-02T01:53:04.951Z,101168.80
2019-02-02T01:55:36.008Z,101165.84
2019-02-02T01:58:16.025Z,101168.17
2019-02-02T02:00:38.988Z,101163.64
2019-02-02T02:03:16.825Z,101164.02
2019-02-02T02:05:48.921Z,101159.54
2019-02-02T02:08:20.614Z,101151.11
2019-02-02T02:10:52.481Z,101151.58
2019-02-02T02:13:23.903Z,101158.30
2019-02-02T02:15:55.310Z,101154.03
2019-02-02T02:18:30.561Z,101151.20
2019-02-02T02:21:01.423Z,101154.12
2019-02-02T02:23:32.687Z,101149.86
2019-02-02T02:26:04.108Z,101150.70
2019-02-02T02:28:38.938Z,101153.24
2019-02-02T02:31:19.414Z,101154.16
2019-02-02T02:33:56.857Z,101156.41
2019-02-02T02:36:35.346Z,101153.99
2019-02-02T02:39:11.888Z,101156.59
2019-02-02T02:41:43.421Z,101155.37
2019-02-02T02:44:18.650Z,101160.45
2019-02-02T02:46:58.749Z,101163.64
2019-02-02T02:49:39.115Z,101152.91
2019-02-02T02:52:15.476Z,101158.94
2019-02-02T02:54:46.646Z,101145.70
2019-02-02T02:57:17.919Z,101144.48
2019-02-02T02:59:49.142Z,101148.22
2019-02-02T03:02:19.648Z,101143.70
2019-02-02T03:04:56.041Z,101148.41
2019-02-02T03:07:30.916Z,101147.97
2019-02-02T03:10:05.653Z,101154.09
2019-02-02T03:12:44.868Z,101156.25
2019-02-02T03:15:18.425Z,101157.32
2019-02-02T03:17:52.502Z,101153.22
2019-02-02T03:20:22.516Z,101147.20
2019-02-02T03:22:55.332Z,101156.77
2019-02-02T03:25:28.277Z,101158.67
2019-02-02T03:28:02.522Z,101148.92
2019-02-02T03:30:35.015Z,101147.52
2019-02-02T03:33:10.799Z,101149.64
2019-02-02T03:35:54.490Z,101153.27
2019-02-02T03:38:28.178Z,101162.30
2019-02-02T03:41:04.367Z,101157.84
2019-02-02T03:43:41.870Z,101166.00
2019-02-02T03:46:14.263Z,101166.72
2019-02-02T03:48:49.912Z,101165.49
2019-02-02T03:51:22.016Z,101168.65
2019-02-02T03:54:08.868Z,101173.56
2019-02-02T03:56:39.384Z,101166.53
2019-02-02T03:59:30.525Z,101173.02
2019-02-02T04:02:00.360Z,101168.63
2019-02-02T04:04:31.824Z,101164.60
2019-02-02T04:07:11.802Z,101169.51
2019-02-02T04:09:44.626Z,101167.30
2019-02-02T04:12:15.902Z,101171.42
2019-02-02T04:14:50.038Z,101171.11
2019-02-02T04:17:19.802Z,101171.28
2019-02-02T04:19:50.789Z,101165.17
2019-02-02T04:22:24.538Z,101176.50
2019-02-02T04:25:00.355Z,101178.16
2019-02-02T04:27:36.836Z,101183.66
2019-02-02T04:30:09.675Z,101182.94
2019-02-02T04:32:46.842Z,101174.86
2019-02-02T04:35:19.686Z,101190.58
2019-02-02T04:37:57.128Z,101186.69
2019-02-02T04:40:32.756Z,101186.56
2019-02-02T04:43:02.602Z,101187.66
2019-02-02T04:45:44.300Z,101191.62
2019-02-02T04:48:18.310Z,101192.28
2019-02-02T04:50:50.831Z,101197.52
2019-02-02T04:53:20.605Z,101194.86
2019-02-02T04:55:57.695Z,101195.83
2019-02-02T04:58:27.614Z,101204.58
2019-02-02T05:01:24.208Z,101199.13
2019-02-02T05:03:59.823Z,101200.44
2019-02-02T05:06:34.544Z,101207.35
2019-02-02T05:09:08.860Z,101209.62
2019-02-02T05:11:43.526Z,101209.16
2019-02-02T05:14:13.468Z,101210.96
2019-02-02T05:16:43.225Z,101216.78
2019-02-02T05:19:16.111Z,101219.78
2019-02-02T05:21:59.124Z,101224.39
2019-02-02T05:24:29.457Z,101227.81
2019-02-02T05:27:07.677Z,101220.82
2019-02-02T05:29:50.599Z,101217.88
2019-02-02T05:32:20.422Z,101214.45
2019-02-02T05:34:56.005Z,101214.58
2019-02-02T05:37:28.861Z,101218.59
2019-02-02T05:40:15.923Z,101209.73
2019-02-02T05:42:48.212Z,101209.25
2019-02-02T05:45:24.012Z,101207.92
2019-02-02T05:47:57.343Z,101200.72
2019-02-02T05:50:29.876Z,101201.87
2019-02-02T05:53:03.329Z,101204.30
2019-02-02T05:55:39.819Z,101208.33
2019-02-02T05:58:29.639Z,101204.27
2019-02-02T06:01:05.655Z,101198.34
2019-02-02T06:03:43.895Z,101192.52
2019-02-02T06:06:17.461Z,101201.41
2019-02-02T06:08:49.380Z,101199.33
2019-02-02T06:11:31.976Z,101200.88
2019-02-02T06:14:04.902Z,101198.45
2019-02-02T06:16:42.681Z,101202.98
2019-02-02T06:19:16.225Z,101206.19
2019-02-02T06:21:47.706Z,101195.31
2019-02-02T06:24:17.449Z,101201.00
2019-02-02T06:26:49.995Z,101200.42
2019-02-02T06:29:22.337Z,101206.87
2019-02-02T06:31:52.237Z,101206.77
2019-02-02T06:34:27.338Z,101211.25
2019-02-02T06:37:03.668Z,101210.59
2019-02-02T06:39:35.085Z,101212.31
2019-02-02T06:42:06.964Z,101212.86
2019-02-02T06:44:38.025Z,101212.87
2019-02-02T06:47:12.967Z,101220.45
2019-02-02T06:49:51.483Z,101226.61
2019-02-02T06:52:24.373Z,101227.19
2019-02-02T06:54:57.164Z,101232.48
2019-02-02T06:57:27.096Z,101238.00
2019-02-02T07:00:15.758Z,101233.43
2019-02-02T07:02:38.386Z,101232.58
2019-02-02T07:05:08.724Z,101230.27
2019-02-02T07:07:42.334Z,101233.08
2019-02-02T07:10:15.380Z,101238.61
2019-02-02T07:12:47.407Z,101238.18
2019-02-02T07:15:24.672Z,101235.36
2019-02-02T07:17:54.757Z,101236.80
2019-02-02T07:20:26.853Z,101238.78
2019-02-02T07:23:01.558Z,101231.77
2019-02-02T07:25:32.202Z,101224.60
2019-02-02T07:28:06.013Z,101222.19
2019-02-02T07:30:35.632Z,101221.83
2019-02-02T07:33:19.350Z,101217.23
2019-02-02T07:35:46.445Z,101212.53
2019-02-02T07:38:20.324Z,101211.25
2019-02-02T07:40:56.153Z,101206.70
2019-02-02T07:43:24.693Z,101211.12
2019-02-02T07:45:54.481Z,101208.94
2019-02-02T07:48:43.430Z,101203.46
2019-02-02T07:51:18.621Z,101197.47
2019-02-02T07:53:56.564Z,101200.08
2019-02-02T07:56:37.433Z,101200.48
2019-02-02T07:59:11.230Z,101208.25
2019-02-02T08:01:42.807Z,101199.45
2019-02-02T08:04:13.952Z,101201.77
2019-02-02T08:06:54.256Z,101213.75
2019-02-02T08:09:27.351Z,101211.67
2019-02-02T08:11:59.492Z,101209.86
2019-02-02T08:14:35.882Z,101208.30
2019-02-02T08:17:06.738Z,101220.66
2019-02-02T08:19:36.410Z,101226.91
2019-02-02T08:22:12.447Z,101223.02
2019-02-02T08:24:51.119Z,101229.44
2019-02-02T08:27:18.396Z,101224.99
2019-02-02T08:30:03.693Z,101229.14
2019-02-02T08:32:38.945Z,101226.55
2019-02-02T08:35:14.763Z,101226.61
2019-02-02T08:37:46.624Z,101229.38
2019-02-02T08:40:19.865Z,101229.01
2019-02-02T08:42:58.560Z,101233.63
2019-02-02T08:45:32.781Z,101231.94
2019-02-02T08:48:03.769Z,101233.15
2019-02-02T08:50:38.668Z,101226.05
2019-02-02T08:53:08.526Z,101233.06
2019-02-02T08:55:38.313Z,101232.03
2019-02-02T08:58:08.440Z,101236.45
2019-02-02T09:00:39.921Z,101232.56
2019-02-02T09:03:09.876Z,101235.59
2019-02-02T09:05:39.920Z,101231.52
2019-02-02T09:08:09.875Z,101231.03
2019-02-02T09:10:39.753Z,101228.92
2019-02-02T09:13:09.666Z,101228.90
2019-02-02T09:15:39.711Z,101230.50
2019-02-02T09:18:09.566Z,101227.34
2019-02-02T09:20:39.396Z,101228.65
2019-02-02T09:23:09.467Z,101227.56
2019-02-02T09:25:39.475Z,101223.11
2019-02-02T09:28:09.260Z,101220.25
2019-02-02T09:30:40.265Z,101218.92
2019-02-02T09:33:11.439Z,101213.61
2019-02-02T09:35:41.827Z,101210.45
2019-02-02T09:38:12.344Z,101206.34
2019-02-02T09:40:43.185Z,101204.41
2019-02-02T09:43:13.140Z,101200.86
2019-02-02T09:45:43.051Z,101193.41
2019-02-02T09:48:13.021Z,101189.75
2019-02-02T09:50:42.982Z,101191.30
2019-02-02T09:53:14.389Z,101192.03
2019-02-02T09:55:44.330Z,101190.04
2019-02-02T09:58:14.604Z,101187.62
2019-02-02T10:00:44.895Z,101180.23
2019-02-02T10:03:14.843Z,101187.66
2019-02-02T10:05:44.800Z,101179.07
2019-02-02T10:08:14.580Z,101181.69
2019-02-02T10:10:44.505Z,101169.23
2019-02-02T10:13:14.515Z,101173.08
2019-02-02T10:15:44.345Z,101170.54
2019-02-02T10:18:14.140Z,101168.69
2019-02-02T10:20:44.246Z,101163.53
2019-02-02T10:23:14.184Z,101162.73
2019-02-02T10:25:44.114Z,101152.80
2019-02-02T10:28:15.279Z,101148.98
2019-02-02T10:30:45.958Z,101147.45
2019-02-02T10:33:16.894Z,101147.73
2019-02-02T10:35:46.976Z,101143.44
2019-02-02T10:38:16.976Z,101139.38
2019-02-02T10:40:46.982Z,101133.55
2019-02-02T10:43:17.098Z,101133.83
2019-02-02T10:45:47.152Z,101125.33
2019-02-02T10:48:17.107Z,101128.81
2019-02-02T10:50:47.120Z,101122.23
2019-02-02T10:53:17.275Z,101121.76
2019-02-02T10:55:47.173Z,101115.61
2019-02-02T10:58:17.336Z,101109.35
2019-02-02T11:00:47.212Z,101112.39
2019-02-02T11:03:17.138Z,101098.52
2019-02-02T11:05:47.175Z,101098.17
2019-02-02T11:08:17.346Z,101096.10
2019-02-02T11:10:47.336Z,101092.44
2019-02-02T11:13:17.381Z,101079.53
2019-02-02T11:15:47.631Z,101072.55
2019-02-02T11:18:17.446Z,101075.13
2019-02-02T11:20:47.421Z,101059.58
2019-02-02T11:23:17.312Z,101059.05
2019-02-02T11:25:47.402Z,101054.91
2019-02-02T11:28:19.721Z,101059.39
2019-02-02T11:30:52.226Z,101056.34
2019-02-02T11:33:21.463Z,101054.32
2019-02-02T11:35:52.727Z,101045.27
2019-02-02T11:38:22.712Z,101030.88
2019-02-02T11:40:52.757Z,101029.70
2019-02-02T11:43:24.013Z,101039.69
2019-02-02T11:45:54.025Z,101041.95
2019-02-02T11:48:24.019Z,101033.16
2019-02-02T11:50:54.196Z,101028.51
2019-02-02T11:53:24.030Z,101028.48
2019-02-02T11:55:53.871Z,101023.95
2019-02-02T11:58:23.812Z,101012.30
2019-02-02T12:00:54.019Z,101010.86
2019-02-02T12:03:23.990Z,101007.66
2019-02-02T12:05:55.114Z,101004.06
2019-02-02T12:08:25.077Z,101005.84
2019-02-02T12:10:54.862Z,100999.33
2019-02-02T12:13:24.713Z,100994.95
2019-02-02T12:15:54.746Z,100990.67
2019-02-02T12:18:24.616Z,100999.84
2019-02-02T12:20:54.553Z,100997.46
2019-02-02T12:23:24.698Z,100995.21
2019-02-02T12:25:55.105Z,100996.61
2019-02-02T12:28:25.131Z,100987.34
2019-02-02T12:30:56.266Z,100980.34
2019-02-02T12:33:26.256Z,100992.11
2019-02-02T12:35:57.729Z,100989.84
2019-02-02T12:38:29.097Z,100993.30
2019-02-02T12:40:59.797Z,101004.46
2019-02-02T12:43:29.834Z,101000.45
2019-02-02T12:45:59.677Z,101000.33
2019-02-02T12:48:32.147Z,100996.27
2019-02-02T12:51:01.139Z,100996.98
2019-02-02T12:53:31.066Z,100995.21
2019-02-02T12:56:00.993Z,100998.28
2019-02-02T12:58:32.122Z,100994.02
2019-02-02T13:01:02.357Z,100994.26
2019-02-02T13:03:32.125Z,100992.10
2019-02-02T13:06:02.294Z,100993.77
2019-02-02T13:08:32.159Z,100987.48
2019-02-02T13:11:02.012Z,100989.36
2019-02-02T13:13:32.052Z,100986.97
2019-02-02T13:16:01.909Z,100987.70
2019-02-02T13:18:31.745Z,100982.23
2019-02-02T13:21:01.693Z,100986.73
2019-02-02T13:23:31.574Z,100985.21
2019-02-02T13:26:05.517Z,100987.71
2019-02-02T13:28:33.225Z,100982.70
2019-02-02T13:31:03.388Z,100985.45
2019-02-02T13:33:33.191Z,100992.22
2019-02-02T13:36:04.360Z,100986.87
2019-02-02T13:38:34.349Z,100985.56
2019-02-02T13:41:04.269Z,100987.59
2019-02-02T13:43:34.248Z,100997.32
2019-02-02T13:46:04.209Z,100981.16
2019-02-02T13:48:34.313Z,100986.76
2019-02-02T13:51:06.158Z,100981.88
2019-02-02T13:53:35.793Z,100986.73
2019-02-02T13:56:05.809Z,100988.52
2019-02-02T13:58:35.784Z,100987.10
2019-02-02T14:01:05.650Z,100979.63
2019-02-02T14:03:35.570Z,100985.31
2019-02-02T14:06:05.530Z,100995.30
2019-02-02T14:08:35.394Z,100993.19
2019-02-02T14:11:05.423Z,100999.23
2019-02-02T14:13:35.257Z,101000.80
2019-02-02T14:16:05.287Z,100997.20
2019-02-02T14:18:35.148Z,100999.25
2019-02-02T14:21:05.367Z,101003.27
2019-02-02T14:23:35.301Z,101012.30
2019-02-02T14:26:05.222Z,101011.69
2019-02-02T14:28:35.073Z,101007.84
2019-02-02T14:31:04.963Z,101010.36
2019-02-02T14:33:34.854Z,101006.16
2019-02-02T14:36:04.642Z,100997.11
2019-02-02T14:38:34.491Z,101003.52
2019-02-02T14:41:04.521Z,101001.14
2019-02-02T14:43:35.703Z,101006.09
2019-02-02T14:46:06.027Z,101003.92
2019-02-02T14:48:35.915Z,101004.39
2019-02-02T14:51:13.671Z,101008.64
2019-02-02T14:53:43.547Z,100993.91
2019-02-02T14:56:13.438Z,101007.67
2019-02-02T14:58:43.300Z,101005.48
2019-02-02T15:01:13.171Z,100998.34
2019-02-02T15:03:43.804Z,100995.45
2019-02-02T15:06:15.069Z,100996.81
2019-02-02T15:08:44.886Z,101010.10
2019-02-02T15:11:14.903Z,101014.81
2019-02-02T15:13:44.943Z,101006.82
2019-02-02T15:16:14.845Z,101007.37
2019-02-02T15:18:44.572Z,101010.98
2019-02-02T15:21:14.481Z,101004.75
2019-02-02T15:23:45.535Z,101003.69
2019-02-02T15:26:15.627Z,101008.20
2019-02-02T15:28:45.590Z,101000.69
2019-02-02T15:31:15.444Z,100997.46
2019-02-02T15:33:45.191Z,101004.21
2019-02-02T15:36:15.178Z,100991.16
2019-02-02T15:38:45.102Z,101002.31
2019-02-02T15:41:16.052Z,101007.44
2019-02-02T15:43:45.838Z,101005.55
2019-02-02T15:46:15.668Z,101010.94
2019-02-02T15:48:45.633Z,101020.06
2019-02-02T15:51:15.522Z,101024.98
2019-02-02T15:53:45.409Z,101026.40
2019-02-02T15:56:15.377Z,101026.92
2019-02-02T15:58:45.270Z,101033.81
2019-02-02T16:01:15.050Z,101037.20
2019-02-02T16:03:49.690Z,101048.20
2019-02-02T16:06:16.539Z,101052.32
2019-02-02T16:08:47.708Z,101049.80
2019-02-02T16:11:17.824Z,101057.28
2019-02-02T16:13:47.724Z,101054.02
2019-02-02T16:16:17.688Z,101050.08
2019-02-02T16:18:47.455Z,101053.61
2019-02-02T16:21:17.371Z,101054.14
2019-02-02T16:23:47.342Z,101046.04
2019-02-02T16:26:17.112Z,101046.84
2019-02-02T16:28:48.728Z,101051.08
2019-02-02T16:31:19.120Z,101052.55
2019-02-02T16:33:48.937Z,101052.67
2019-02-02T16:36:20.189Z,101064.63
2019-02-02T16:38:50.193Z,101061.85
2019-02-02T16:41:20.119Z,101058.96
2019-02-02T16:43:50.125Z,101064.85
2019-02-02T16:46:19.969Z,101069.69
2019-02-02T16:48:49.857Z,101064.22
2019-02-02T16:51:19.830Z,101062.38
2019-02-02T16:53:49.700Z,101062.96
2019-02-02T16:56:19.598Z,101061.49
2019-02-02T16:58:49.527Z,101064.39
2019-02-02T17:01:19.414Z,101060.95
2019-02-02T17:03:49.421Z,101063.47
2019-02-02T17:06:19.260Z,101064.23
2019-02-02T17:08:49.197Z,101052.88
2019-02-02T17:11:19.035Z,101060.70
2019-02-02T17:13:48.800Z,101065.74
2019-02-02T17:16:18.833Z,101055.91
2019-02-02T17:18:48.897Z,101064.19
2019-02-02T17:21:19.987Z,101051.75
2019-02-02T17:23:49.985Z,101052.67
2019-02-02T17:26:19.895Z,101055.48
2019-02-02T17:28:49.882Z,101060.69
2019-02-02T17:31:19.742Z,101062.25
2019-02-02T17:33:49.540Z,101059.51
2019-02-02T17:36:19.515Z,101061.93
2019-02-02T17:38:49.386Z,101058.14
2019-02-02T17:41:19.335Z,101066.34
2019-02-02T17:43:49.257Z,101062.18
2019-02-02T17:46:19.205Z,101066.25
2019-02-02T17:48:49.040Z,101068.61
2019-02-02T17:51:19.057Z,101061.17
2019-02-02T17:53:49.140Z,101069.89
2019-02-02T17:56:19.110Z,101056.08
2019-02-02T17:58:49.012Z,101068.43
2019-02-02T18:01:19.006Z,101071.39
2019-02-02T18:03:48.862Z,101064.33
2019-02-02T18:06:18.914Z,101073.27
2019-02-02T18:08:48.715Z,101074.39
2019-02-02T18:11:18.607Z,101079.12
2019-02-02T18:13:48.552Z,101079.12
2019-02-02T18:16:18.442Z,101085.52
2019-02-02T18:18:49.109Z,101084.31
2019-02-02T18:21:19.172Z,101087.00
2019-02-02T18:23:49.028Z,101085.42
2019-02-02T18:26:18.939Z,101089.88
2019-02-02T18:28:49.028Z,101091.76
2019-02-02T18:31:18.862Z,101093.06
2019-02-02T18:33:48.569Z,101092.41
2019-02-02T18:36:18.436Z,101097.61
2019-02-02T18:38:48.304Z,101098.98
2019-02-02T18:41:18.158Z,101097.03
2019-02-02T18:43:48.028Z,101088.02
2019-02-02T18:46:17.874Z,101090.08
2019-02-02T18:48:49.326Z,101093.61
2019-02-02T18:51:19.358Z,101094.16
2019-02-02T18:53:49.235Z,101096.22
2019-02-02T18:56:19.065Z,101101.04
2019-02-02T18:58:49.202Z,101084.13
2019-02-02T19:01:19.197Z,101091.91
2019-02-02T19:03:49.113Z,101090.57
2019-02-02T19:06:19.159Z,101095.26
2019-02-02T19:08:48.936Z,101102.13
2019-02-02T19:11:18.838Z,101098.86
2019-02-02T19:13:48.828Z,101101.87
2019-02-02T19:16:18.696Z,101101.57
2019-02-02T19:18:48.613Z,101106.59
2019-02-02T19:21:19.536Z,101109.86
2019-02-02T19:23:49.342Z,101105.88
2019-02-02T19:26:19.042Z,101100.48
2019-02-02T19:28:50.188Z,101098.44
2019-02-02T19:31:20.017Z,101080.60
2019-02-02T19:33:49.937Z,101104.50
2019-02-02T19:36:21.003Z,101110.90
2019-02-02T19:38:50.598Z,101110.33
2019-02-02T19:41:20.539Z,101110.72
2019-02-02T19:43:50.474Z,101113.86
2019-02-02T19:46:20.383Z,101120.73
2019-02-02T19:48:50.304Z,101124.41
2019-02-02T19:51:20.243Z,101127.00
2019-02-02T19:53:50.124Z,101127.03
2019-02-02T19:56:19.979Z,101122.96
2019-02-02T19:58:49.919Z,101125.12
2019-02-02T20:01:19.806Z,101124.35
2019-02-02T20:03:49.791Z,101118.87
2019-02-02T20:06:19.745Z,101125.20
2019-02-02T20:08:49.764Z,101119.28
2019-02-02T20:11:19.723Z,101125.06
2019-02-02T20:13:49.771Z,101121.55
2019-02-02T20:16:19.814Z,101122.27
2019-02-02T20:18:49.681Z,101123.39
2019-02-02T20:21:20.902Z,101114.30
2019-02-02T20:23:50.633Z,101113.11
2019-02-02T20:26:20.508Z,101115.48
2019-02-02T20:28:50.451Z,101113.16
2019-02-02T20:31:20.403Z,101110.09
2019-02-02T20:33:50.101Z,101109.91
2019-02-02T20:36:20.003Z,101113.33
2019-02-02T20:38:49.967Z,101109.62
2019-02-02T20:41:19.851Z,101106.89
2019-02-02T20:43:51.060Z,101105.06
2019-02-02T20:46:21.059Z,101105.34
2019-02-02T20:48:50.935Z,101102.80
2019-02-02T20:51:20.962Z,101107.78
2019-02-02T20:53:50.784Z,101111.13
2019-02-02T20:56:20.747Z,101110.64
2019-02-02T20:58:50.658Z,101108.26
2019-02-02T21:01:20.526Z,101112.61
2019-02-02T21:03:51.629Z,101116.89
2019-02-02T21:06:21.374Z,101113.77
2019-02-02T21:08:51.405Z,101113.97
2019-02-02T21:11:22.352Z,101116.36
2019-02-02T21:13:52.153Z,101107.91
2019-02-02T21:16:22.294Z,101109.73
2019-02-02T21:18:52.247Z,101108.61
2019-02-02T21:21:22.114Z,101113.41
2019-02-02T21:23:54.811Z,101115.13
2019-02-02T21:26:23.925Z,101115.69
2019-02-02T21:28:54.055Z,101121.48
2019-02-02T21:31:24.021Z,101114.70
2019-02-02T21:33:53.988Z,101111.10
2019-02-02T21:36:23.757Z,101108.05
2019-02-02T21:38:53.678Z,101113.34
2019-02-02T21:41:23.523Z,101118.46
2019-02-02T21:43:53.409Z,101120.31
2019-02-02T21:46:23.208Z,101124.30
2019-02-02T21:48:53.085Z,101119.91
2019-02-02T21:51:23.103Z,101117.88
2019-02-02T21:53:52.986Z,101123.83
2019-02-02T21:56:24.024Z,101117.05
2019-02-02T21:58:53.955Z,101125.91
2019-02-02T22:01:24.484Z,101128.89
2019-02-02T22:03:54.528Z,101129.52
2019-02-02T22:06:24.387Z,101128.92
2019-02-02T22:08:54.419Z,101130.72
2019-02-02T22:11:24.300Z,101125.25
2019-02-02T22:13:54.384Z,101128.08
2019-02-02T22:16:24.630Z,101132.04
2019-02-02T22:18:54.651Z,101135.81
2019-02-02T22:21:24.515Z,101133.29
2019-02-02T22:23:55.091Z,101124.91
2019-02-02T22:26:24.996Z,101122.52
2019-02-02T22:28:57.825Z,101120.95
2019-02-02T22:31:26.709Z,101128.05
2019-02-02T22:33:56.703Z,101134.62
2019-02-02T22:36:27.761Z,101125.54
2019-02-02T22:38:57.791Z,101122.49
2019-02-02T22:41:27.547Z,101126.62
2019-02-02T22:43:57.489Z,101125.88
2019-02-02T22:46:27.313Z,101123.17
2019-02-02T22:48:57.205Z,101127.45
2019-02-02T22:51:27.119Z,101124.80
2019-02-02T22:53:57.288Z,101121.69
2019-02-02T22:56:27.265Z,101116.36
2019-02-02T22:58:57.289Z,101116.64
2019-02-02T23:01:34.641Z,101121.59
2019-02-02T23:04:53.971Z,101119.00
2019-02-02T23:08:07.189Z,101120.45
2019-02-02T23:11:25.872Z,101123.81
2019-02-02T23:14:19.851Z,101117.84
2019-02-02T23:16:49.957Z,101116.58
2019-02-02T23:19:19.731Z,101114.30
2019-02-02T23:21:49.541Z,101120.21
2019-02-02T23:24:19.521Z,101130.20
2019-02-02T23:26:49.905Z,101125.54
2019-02-02T23:29:19.815Z,101133.48
2019-02-02T23:31:51.079Z,101134.47
2019-02-02T23:34:20.969Z,101137.23
2019-02-02T23:36:53.881Z,101135.61
2019-02-02T23:39:22.318Z,101139.82
2019-02-02T23:41:52.176Z,101132.34
2019-02-02T23:44:22.094Z,101136.39
2019-02-02T23:46:52.356Z,101146.88
2019-02-02T23:49:22.128Z,101146.37
2019-02-02T23:51:51.836Z,101143.77
2019-02-02T23:54:21.669Z,101143.02
2019-02-02T23:56:51.454Z,101140.88
2019-02-02T23:59:21.272Z,101140.26
